createdAt,value
2023-01-17T00:02:19.871Z,20.53
2023-01-17T00:05:07.151Z,22.27
2023-01-17T00:07:53.779Z,20.57
2023-01-17T00:10:24.387Z,21.53
2023-01-17T00:12:52.362Z,20.90
2023-01-17T00:15:24.109Z,21.53
2023-01-17T00:17:53.832Z,19.80
2023-01-17T00:20:45.709Z,19.23
2023-01-17T00:23:35.973Z,21.93
2023-01-17T00:26:06.378Z,24.37
2023-01-17T00:28:39.172Z,22.07
2023-01-17T00:31:09.371Z,33.73
2023-01-17T00:33:37.319Z,22.50
2023-01-17T00:36:06.467Z,26.70
2023-01-17T00:38:36.824Z,25.27
2023-01-17T00:41:04.813Z,23.53
2023-01-17T00:43:51.097Z,22.83
2023-01-17T00:46:37.829Z,21.30
2023-01-17T00:49:24.912Z,22.83
2023-01-17T00:52:11.602Z,21.97
2023-01-17T00:54:57.840Z,21.87
2023-01-17T00:57:44.330Z,25.43
2023-01-17T01:00:31.274Z,22.03
2023-01-17T01:03:17.997Z,24.07
2023-01-17T01:06:04.126Z,22.47
2023-01-17T01:08:50.923Z,23.80
2023-01-17T01:11:39.870Z,25.17
2023-01-17T01:14:28.482Z,24.30
2023-01-17T01:17:15.039Z,22.83
2023-01-17T01:20:01.644Z,24.10
2023-01-17T01:22:47.783Z,24.43
2023-01-17T01:25:35.073Z,27.33
2023-01-17T01:28:24.973Z,23.97
2023-01-17T01:31:11.425Z,24.03
2023-01-17T01:33:38.866Z,26.83
2023-01-17T01:36:10.845Z,25.17
2023-01-17T01:38:38.752Z,26.83
2023-01-17T01:41:06.996Z,24.00
2023-01-17T01:43:51.008Z,24.73
2023-01-17T01:46:24.564Z,24.80
2023-01-17T01:48:57.232Z,24.80
2023-01-17T01:51:30.500Z,24.33
2023-01-17T01:54:14.887Z,26.77
2023-01-17T01:56:44.271Z,23.53
2023-01-17T01:59:15.947Z,23.73
2023-01-17T02:01:44.922Z,26.63
2023-01-17T02:04:13.190Z,26.03
2023-01-17T02:06:46.353Z,25.27
2023-01-17T02:09:16.450Z,24.37
2023-01-17T02:11:44.773Z,26.17
2023-01-17T02:14:16.704Z,25.33
2023-01-17T02:16:53.861Z,24.23
2023-01-17T02:19:31.097Z,26.83
2023-01-17T02:21:59.207Z,25.93
2023-01-17T02:24:40.091Z,26.83
2023-01-17T02:27:08.067Z,26.07
2023-01-17T02:29:46.455Z,25.77
2023-01-17T02:32:17.232Z,26.67
2023-01-17T02:35:22.220Z,27.20
2023-01-17T02:38:03.999Z,26.07
2023-01-17T02:40:46.381Z,25.80
2023-01-17T02:43:16.122Z,28.07
2023-01-17T02:45:45.941Z,26.37
2023-01-17T02:48:15.566Z,29.93
2023-01-17T02:50:55.798Z,27.67
2023-01-17T02:54:00.438Z,27.57
2023-01-17T02:56:58.077Z,28.57
2023-01-17T02:59:28.316Z,31.67
2023-01-17T03:02:07.452Z,28.53
2023-01-17T03:04:39.266Z,28.53
2023-01-17T03:07:13.177Z,29.73
2023-01-17T03:09:43.630Z,28.17
2023-01-17T03:12:11.408Z,30.27
2023-01-17T03:14:39.362Z,28.23
2023-01-17T03:17:07.029Z,29.37
2023-01-17T03:19:35.389Z,30.93
2023-01-17T03:22:03.405Z,28.57
2023-01-17T03:24:31.414Z,29.63
2023-01-17T03:26:59.457Z,28.00
2023-01-17T03:29:27.490Z,30.77
2023-01-17T03:31:55.244Z,31.00
2023-01-17T03:34:23.139Z,28.40
2023-01-17T03:36:51.010Z,29.70
2023-01-17T03:39:19.058Z,30.07
2023-01-17T03:41:46.699Z,29.73
2023-01-17T03:44:14.587Z,28.77
2023-01-17T03:46:42.238Z,28.53
2023-01-17T03:49:10.539Z,30.00
2023-01-17T03:51:38.191Z,29.80
2023-01-17T03:54:06.135Z,30.70
2023-01-17T03:56:33.820Z,30.77
2023-01-17T03:59:01.804Z,30.47
2023-01-17T04:01:29.498Z,29.47
2023-01-17T04:03:57.546Z,30.33
2023-01-17T04:06:25.250Z,28.90
2023-01-17T04:08:53.310Z,29.97
2023-01-17T04:11:21.114Z,29.03
2023-01-17T04:13:49.068Z,29.40
2023-01-17T04:16:17.907Z,28.57
2023-01-17T04:18:45.946Z,29.90
2023-01-17T04:21:13.619Z,28.93
2023-01-17T04:23:41.535Z,31.93
2023-01-17T04:26:09.956Z,29.50
2023-01-17T04:28:38.029Z,30.30
2023-01-17T04:31:05.807Z,31.67
2023-01-17T04:33:33.924Z,30.57
2023-01-17T04:36:01.925Z,30.90
2023-01-17T04:38:29.824Z,31.27
2023-01-17T04:40:57.425Z,31.43
2023-01-17T04:43:25.308Z,32.47
2023-01-17T04:45:56.663Z,32.63
2023-01-17T04:48:24.885Z,31.67
2023-01-17T04:50:52.495Z,30.90
2023-01-17T04:53:20.511Z,34.57
2023-01-17T04:55:48.119Z,32.60
2023-01-17T04:58:16.049Z,35.13
2023-01-17T05:00:43.731Z,36.07
2023-01-17T05:03:11.633Z,33.73
2023-01-17T05:05:39.322Z,37.10
2023-01-17T05:08:07.235Z,35.40
2023-01-17T05:10:34.921Z,34.07
2023-01-17T05:13:03.290Z,33.80
2023-01-17T05:15:31.239Z,35.53
2023-01-17T05:17:59.384Z,35.07
2023-01-17T05:20:27.908Z,35.60
2023-01-17T05:22:56.997Z,34.90
2023-01-17T05:25:25.769Z,34.07
2023-01-17T05:27:54.234Z,34.90
2023-01-17T05:30:22.906Z,35.33
2023-01-17T05:32:51.683Z,34.00
2023-01-17T05:35:20.021Z,34.27
2023-01-17T05:37:49.368Z,34.27
2023-01-17T05:40:18.051Z,36.83
2023-01-17T05:42:49.608Z,34.90
2023-01-17T05:45:17.862Z,35.40
2023-01-17T05:47:46.535Z,33.90
2023-01-17T05:50:15.045Z,35.63
2023-01-17T05:52:43.282Z,33.20
2023-01-17T05:55:11.210Z,35.87
2023-01-17T05:57:39.482Z,34.90
2023-01-17T06:00:07.501Z,33.77
2023-01-17T06:02:35.444Z,35.07
2023-01-17T06:05:03.646Z,34.07
2023-01-17T06:07:31.995Z,36.80
2023-01-17T06:09:59.688Z,32.53
2023-01-17T06:12:27.737Z,34.47
2023-01-17T06:14:55.431Z,36.27
2023-01-17T06:17:23.428Z,34.67
2023-01-17T06:19:51.245Z,36.47
2023-01-17T06:22:19.128Z,38.77
2023-01-17T06:24:46.789Z,40.00
2023-01-17T06:27:14.704Z,40.77
2023-01-17T06:29:42.313Z,38.00
2023-01-17T06:32:10.536Z,40.80
2023-01-17T06:34:38.711Z,40.60
2023-01-17T06:37:06.978Z,39.93
2023-01-17T06:39:34.974Z,36.67
2023-01-17T06:42:03.051Z,37.77
2023-01-17T06:44:30.681Z,39.93
2023-01-17T06:46:58.692Z,39.70
2023-01-17T06:49:26.485Z,43.33
2023-01-17T06:51:54.532Z,42.47
2023-01-17T06:54:22.241Z,40.67
2023-01-17T06:56:50.102Z,42.83
2023-01-17T06:59:17.790Z,40.73
2023-01-17T07:01:45.967Z,39.40
2023-01-17T07:04:13.683Z,40.47
2023-01-17T07:06:41.618Z,40.80
2023-01-17T07:09:09.364Z,40.93
2023-01-17T07:11:37.287Z,39.20
2023-01-17T07:14:05.122Z,44.23
2023-01-17T07:16:34.219Z,43.63
2023-01-17T07:19:01.914Z,44.97
2023-01-17T07:21:29.853Z,41.67
2023-01-17T07:23:57.531Z,44.07
2023-01-17T07:26:26.707Z,42.67
2023-01-17T07:28:54.222Z,43.77
2023-01-17T07:31:22.174Z,42.57
2023-01-17T07:33:49.949Z,41.73
2023-01-17T07:36:17.825Z,39.17
2023-01-17T07:38:46.876Z,41.00
2023-01-17T07:41:14.813Z,37.23
2023-01-17T07:43:42.513Z,38.13
2023-01-17T07:46:10.533Z,36.10
2023-01-17T07:48:38.108Z,35.27
2023-01-17T07:51:06.153Z,34.33
2023-01-17T07:53:33.793Z,33.87
2023-01-17T07:56:07.518Z,33.20
2023-01-17T07:58:36.948Z,34.70
2023-01-17T08:01:10.289Z,32.43
2023-01-17T08:03:40.300Z,32.37
2023-01-17T08:06:25.406Z,33.83
2023-01-17T08:08:56.493Z,32.03
2023-01-17T08:11:24.528Z,30.50
2023-01-17T08:13:57.550Z,30.93
2023-01-17T08:16:25.755Z,30.47
2023-01-17T08:18:53.627Z,29.10
2023-01-17T08:21:21.784Z,30.90
2023-01-17T08:23:50.054Z,31.30
2023-01-17T08:26:22.561Z,28.67
2023-01-17T08:28:56.025Z,27.27
2023-01-17T08:31:24.817Z,28.57
2023-01-17T08:33:52.639Z,27.90
2023-01-17T08:36:20.735Z,28.03
2023-01-17T08:38:52.769Z,26.33
2023-01-17T08:41:22.845Z,25.00
2023-01-17T08:43:51.887Z,27.37
2023-01-17T08:46:20.026Z,23.70
2023-01-17T08:48:47.611Z,24.43
2023-01-17T08:51:15.443Z,23.53
2023-01-17T08:53:43.128Z,24.73
2023-01-17T08:56:10.962Z,20.23
2023-01-17T08:58:38.848Z,21.40
2023-01-17T09:01:06.943Z,22.13
2023-01-17T09:03:35.289Z,20.80
2023-01-17T09:06:11.167Z,19.80
2023-01-17T09:08:39.221Z,20.73
2023-01-17T09:11:08.659Z,19.40
2023-01-17T09:13:36.519Z,18.70
2023-01-17T09:16:04.831Z,19.20
2023-01-17T09:18:34.007Z,18.97
2023-01-17T09:21:11.403Z,18.90
2023-01-17T09:23:39.192Z,18.03
2023-01-17T09:26:07.125Z,19.13
2023-01-17T09:28:42.751Z,17.47
2023-01-17T09:31:10.742Z,16.60
2023-01-17T09:33:41.127Z,16.47
2023-01-17T09:36:09.313Z,16.33
2023-01-17T09:38:37.256Z,15.63
2023-01-17T09:41:22.117Z,14.83
2023-01-17T09:44:16.378Z,15.83
2023-01-17T09:46:47.266Z,13.77
2023-01-17T09:49:50.921Z,14.20
2023-01-17T09:52:21.552Z,13.90
2023-01-17T09:54:50.863Z,13.97
2023-01-17T09:57:27.500Z,13.70
2023-01-17T10:00:13.475Z,12.57
2023-01-17T10:02:41.402Z,13.47
2023-01-17T10:05:38.006Z,12.40
2023-01-17T10:08:27.425Z,13.17
2023-01-17T10:11:15.788Z,12.13
2023-01-17T10:14:09.018Z,13.30
2023-01-17T10:16:36.641Z,11.07
2023-01-17T10:19:39.293Z,11.10
2023-01-17T10:22:23.467Z,11.30
2023-01-17T10:25:04.165Z,10.83
2023-01-17T10:27:38.789Z,11.00
2023-01-17T10:30:36.460Z,10.67
2023-01-17T10:33:20.454Z,9.93
2023-01-17T10:35:57.583Z,10.17
2023-01-17T10:38:30.972Z,9.30
2023-01-17T10:41:40.025Z,9.30
2023-01-17T10:44:07.569Z,10.33
2023-01-17T10:46:53.714Z,8.90
2023-01-17T10:49:25.157Z,8.10
2023-01-17T10:51:59.920Z,8.30
2023-01-17T10:54:27.616Z,7.60
2023-01-17T10:56:56.171Z,6.83
2023-01-17T10:59:32.473Z,8.57
2023-01-17T11:02:06.735Z,8.10
2023-01-17T11:04:40.013Z,7.23
2023-01-17T11:07:16.981Z,7.03
2023-01-17T11:09:53.724Z,7.97
2023-01-17T11:12:30.413Z,7.43
2023-01-17T11:15:21.685Z,6.97
2023-01-17T11:18:03.188Z,6.63
2023-01-17T11:20:35.884Z,6.73
2023-01-17T11:23:12.541Z,7.10
2023-01-17T11:25:40.218Z,6.83
2023-01-17T11:28:20.700Z,6.97
2023-01-17T11:30:53.273Z,7.00
2023-01-17T11:33:45.283Z,7.63
2023-01-17T11:36:19.837Z,6.93
2023-01-17T11:39:08.040Z,5.77
2023-01-17T11:41:35.622Z,6.37
2023-01-17T11:44:19.846Z,6.47
2023-01-17T11:46:47.519Z,6.63
2023-01-17T11:49:25.601Z,6.00
2023-01-17T11:51:56.202Z,6.43
2023-01-17T11:54:29.460Z,6.27
2023-01-17T11:57:01.588Z,6.37
2023-01-17T11:59:35.380Z,5.37
2023-01-17T12:02:40.443Z,5.80
2023-01-17T12:05:35.722Z,6.03
2023-01-17T12:08:24.076Z,5.10
2023-01-17T12:11:07.660Z,6.03
2023-01-17T12:14:01.557Z,5.03
2023-01-17T12:16:56.399Z,5.33
2023-01-17T12:19:41.276Z,5.70
2023-01-17T12:22:20.637Z,5.63
2023-01-17T12:24:50.833Z,4.53
2023-01-17T12:27:46.130Z,4.60
2023-01-17T12:30:13.716Z,4.77
2023-01-17T12:32:56.987Z,4.10
2023-01-17T12:35:45.696Z,4.50
2023-01-17T12:38:32.664Z,4.03
2023-01-17T12:41:15.478Z,4.20
2023-01-17T12:43:44.492Z,3.37
2023-01-17T12:46:23.746Z,3.13
2023-01-17T12:48:56.113Z,3.30
2023-01-17T12:51:33.020Z,4.10
2023-01-17T12:54:12.374Z,4.17
2023-01-17T12:56:54.748Z,3.53
2023-01-17T12:59:35.668Z,3.10
2023-01-17T13:02:15.734Z,2.63
2023-01-17T13:04:58.552Z,3.43
2023-01-17T13:07:35.220Z,4.00
2023-01-17T13:10:07.885Z,3.40
2023-01-17T13:12:38.865Z,3.17
2023-01-17T13:15:23.804Z,3.57
2023-01-17T13:18:14.700Z,3.23
2023-01-17T13:20:45.868Z,4.60
2023-01-17T13:23:17.524Z,4.10
2023-01-17T13:25:47.148Z,3.53
2023-01-17T13:28:17.492Z,3.43
2023-01-17T13:30:54.527Z,3.70
2023-01-17T13:33:26.175Z,3.27
2023-01-17T13:36:29.973Z,4.23
2023-01-17T13:38:58.192Z,3.33
2023-01-17T13:41:35.743Z,3.60
2023-01-17T13:44:22.186Z,3.17
2023-01-17T13:46:56.498Z,3.00
2023-01-17T13:49:27.311Z,3.67
2023-01-17T13:52:18.931Z,3.60
2023-01-17T13:54:50.442Z,3.77
2023-01-17T13:57:34.730Z,3.70
2023-01-17T14:00:27.909Z,3.60
2023-01-17T14:02:56.154Z,3.53
2023-01-17T14:05:38.957Z,3.10
2023-01-17T14:08:13.995Z,3.00
2023-01-17T14:10:49.440Z,3.17
2023-01-17T14:13:32.738Z,3.93
2023-01-17T14:16:01.166Z,3.23
2023-01-17T14:18:40.897Z,2.63
2023-01-17T14:21:13.394Z,3.37
2023-01-17T14:23:48.952Z,3.00
2023-01-17T14:26:37.182Z,3.63
2023-01-17T14:29:23.877Z,2.93
2023-01-17T14:32:00.019Z,3.70
2023-01-17T14:34:28.304Z,4.63
2023-01-17T14:37:04.403Z,4.00
2023-01-17T14:39:32.344Z,3.70
2023-01-17T14:41:59.975Z,3.70
2023-01-17T14:44:27.845Z,3.53
2023-01-17T14:46:57.205Z,3.63
2023-01-17T14:49:27.002Z,3.10
2023-01-17T14:52:05.016Z,4.07
2023-01-17T14:54:33.384Z,3.67
2023-01-17T14:57:31.610Z,4.43
2023-01-17T15:00:35.049Z,9.27
2023-01-17T15:03:03.625Z,6.33
2023-01-17T15:05:32.068Z,5.93
2023-01-17T15:07:59.982Z,13.30
2023-01-17T15:10:31.742Z,11.23
2023-01-17T15:13:09.443Z,5.30
2023-01-17T15:15:40.005Z,24.07
2023-01-17T15:18:20.982Z,7.00
2023-01-17T15:21:02.350Z,5.37
2023-01-17T15:23:34.713Z,5.50
2023-01-17T15:26:04.031Z,4.23
2023-01-17T15:28:32.037Z,4.83
2023-01-17T15:31:03.054Z,4.80
2023-01-17T15:33:32.976Z,4.63
2023-01-17T15:36:03.348Z,4.20
2023-01-17T15:38:38.609Z,4.37
2023-01-17T15:41:12.005Z,4.47
2023-01-17T15:43:41.180Z,5.00
2023-01-17T15:46:23.224Z,3.93
2023-01-17T15:48:51.920Z,4.13
2023-01-17T15:51:41.626Z,4.30
2023-01-17T15:54:24.585Z,4.30
2023-01-17T15:57:06.758Z,4.37
2023-01-17T15:59:51.558Z,3.83
2023-01-17T16:02:31.516Z,9.57
2023-01-17T16:05:01.070Z,5.20
2023-01-17T16:07:36.699Z,4.57
2023-01-17T16:10:25.003Z,3.90
2023-01-17T16:12:54.138Z,3.70
2023-01-17T16:15:23.628Z,4.37
2023-01-17T16:17:53.668Z,4.53
2023-01-17T16:20:28.528Z,5.13
2023-01-17T16:22:56.646Z,4.17
2023-01-17T16:25:25.225Z,4.60
2023-01-17T16:27:54.497Z,4.50
2023-01-17T16:30:22.477Z,3.87
2023-01-17T16:32:51.199Z,4.90
2023-01-17T16:35:22.983Z,4.60
2023-01-17T16:37:56.591Z,4.10
2023-01-17T16:40:30.031Z,4.23
2023-01-17T16:43:00.186Z,4.20
2023-01-17T16:45:28.356Z,3.93
2023-01-17T16:47:56.479Z,3.93
2023-01-17T16:50:25.310Z,3.60
2023-01-17T16:52:53.762Z,3.70
2023-01-17T16:55:23.172Z,3.70
2023-01-17T16:57:52.633Z,3.63
2023-01-17T17:00:20.958Z,3.93
2023-01-17T17:02:52.617Z,4.07
2023-01-17T17:05:21.020Z,4.33
2023-01-17T17:07:51.744Z,4.30
2023-01-17T17:10:21.002Z,3.30
2023-01-17T17:12:49.333Z,3.90
2023-01-17T17:15:17.271Z,4.00
2023-01-17T17:17:45.200Z,4.00
2023-01-17T17:20:14.257Z,3.70
2023-01-17T17:22:44.145Z,4.70
2023-01-17T17:25:12.532Z,4.70
2023-01-17T17:27:40.574Z,4.30
2023-01-17T17:30:09.165Z,3.97
2023-01-17T17:32:37.128Z,4.07
2023-01-17T17:35:05.127Z,3.80
2023-01-17T17:37:33.663Z,4.33
2023-01-17T17:40:01.279Z,4.10
2023-01-17T17:42:29.253Z,3.97
2023-01-17T17:44:56.940Z,4.80
2023-01-17T17:47:24.977Z,4.10
2023-01-17T17:49:53.149Z,4.30
2023-01-17T17:52:21.279Z,4.97
2023-01-17T17:54:49.487Z,5.80
2023-01-17T17:57:17.704Z,5.97
2023-01-17T17:59:45.310Z,4.70
2023-01-17T18:02:13.368Z,4.63
2023-01-17T18:04:41.230Z,5.37
2023-01-17T18:07:09.363Z,6.30
2023-01-17T18:09:37.188Z,5.90
2023-01-17T18:12:05.466Z,6.20
2023-01-17T18:14:34.079Z,6.10
2023-01-17T18:17:02.092Z,5.83
2023-01-17T18:19:29.926Z,5.37
2023-01-17T18:21:58.223Z,5.73
2023-01-17T18:24:26.565Z,6.60
2023-01-17T18:26:58.932Z,6.17
2023-01-17T18:29:27.495Z,5.83
2023-01-17T18:31:56.175Z,5.10
2023-01-17T18:34:28.594Z,5.83
2023-01-17T18:36:57.028Z,4.97
2023-01-17T18:39:29.981Z,5.43
2023-01-17T18:41:58.461Z,5.40
2023-01-17T18:44:30.232Z,5.97
2023-01-17T18:47:02.022Z,6.97
2023-01-17T18:49:30.101Z,8.63
2023-01-17T18:51:58.031Z,18.67
2023-01-17T18:54:27.897Z,26.33
2023-01-17T18:56:56.126Z,11.37
2023-01-17T18:59:24.299Z,7.57
2023-01-17T19:01:52.777Z,8.03
2023-01-17T19:04:21.691Z,7.77
2023-01-17T19:06:49.981Z,7.73
2023-01-17T19:09:18.525Z,7.73
2023-01-17T19:11:47.632Z,8.03
2023-01-17T19:14:15.945Z,7.70
2023-01-17T19:16:43.994Z,8.70
2023-01-17T19:19:14.727Z,8.40
2023-01-17T19:21:42.877Z,8.23
2023-01-17T19:24:13.372Z,7.53
2023-01-17T19:26:43.354Z,8.07
2023-01-17T19:29:12.381Z,8.33
2023-01-17T19:31:43.416Z,8.47
2023-01-17T19:34:14.060Z,8.90
2023-01-17T19:36:41.932Z,7.50
2023-01-17T19:39:10.351Z,7.87
2023-01-17T19:41:46.656Z,8.30
2023-01-17T19:44:15.388Z,8.57
2023-01-17T19:46:44.396Z,8.87
2023-01-17T19:49:13.506Z,8.30
2023-01-17T19:51:42.309Z,9.37
2023-01-17T19:54:10.795Z,9.50
2023-01-17T19:56:38.691Z,10.23
2023-01-17T19:59:07.334Z,9.03
2023-01-17T20:01:35.339Z,8.97
2023-01-17T20:04:05.235Z,8.77
2023-01-17T20:06:37.099Z,9.30
2023-01-17T20:09:06.075Z,8.63
2023-01-17T20:11:34.202Z,8.37
2023-01-17T20:14:02.237Z,10.67
2023-01-17T20:16:31.200Z,9.70
2023-01-17T20:19:00.312Z,9.80
2023-01-17T20:21:29.031Z,10.33
2023-01-17T20:23:58.638Z,9.43
2023-01-17T20:26:35.261Z,9.87
2023-01-17T20:29:22.381Z,10.13
2023-01-17T20:31:52.649Z,11.47
2023-01-17T20:34:21.263Z,9.43
2023-01-17T20:36:49.307Z,10.10
2023-01-17T20:39:19.286Z,10.73
2023-01-17T20:41:49.323Z,19.20
2023-01-17T20:44:20.292Z,20.53
2023-01-17T20:46:48.413Z,16.20
2023-01-17T20:49:19.028Z,16.97
2023-01-17T20:51:47.439Z,23.60
2023-01-17T20:54:17.816Z,16.80
2023-01-17T20:56:47.625Z,13.20
2023-01-17T20:59:18.789Z,12.60
2023-01-17T21:01:46.707Z,12.53
2023-01-17T21:05:04.450Z,12.80
2023-01-17T21:07:32.250Z,11.90
2023-01-17T21:10:00.132Z,13.27
2023-01-17T21:12:27.924Z,15.30
2023-01-17T21:14:55.752Z,15.87
2023-01-17T21:17:23.120Z,16.57
2023-01-17T21:19:51.011Z,14.73
2023-01-17T21:22:18.601Z,15.23
2023-01-17T21:24:46.778Z,14.93
2023-01-17T21:27:17.268Z,13.90
2023-01-17T21:29:45.355Z,13.67
2023-01-17T21:32:12.685Z,15.87
2023-01-17T21:34:41.027Z,14.20
2023-01-17T21:37:09.067Z,14.97
2023-01-17T21:39:36.872Z,14.80
2023-01-17T21:42:04.342Z,15.27
2023-01-17T21:44:36.375Z,14.80
2023-01-17T21:47:04.011Z,15.53
2023-01-17T21:49:31.720Z,15.50
2023-01-17T21:51:59.476Z,14.83
2023-01-17T21:54:48.734Z,14.60
2023-01-17T21:57:38.246Z,13.50
2023-01-17T22:00:07.747Z,15.23
2023-01-17T22:02:44.686Z,16.57
2023-01-17T22:05:13.305Z,15.83
2023-01-17T22:08:01.111Z,16.27
2023-01-17T22:10:29.122Z,15.30
2023-01-17T22:12:56.745Z,15.63
2023-01-17T22:15:24.794Z,13.10
2023-01-17T22:17:52.467Z,16.73
2023-01-17T22:20:21.469Z,16.60
2023-01-17T22:22:48.881Z,16.83
2023-01-17T22:25:16.468Z,18.80
2023-01-17T22:27:43.710Z,16.87
2023-01-17T22:30:13.190Z,18.83
2023-01-17T22:32:41.701Z,19.20
2023-01-17T22:35:09.609Z,21.20
2023-01-17T22:37:36.934Z,19.53
2023-01-17T22:40:06.127Z,19.83
2023-01-17T22:42:36.543Z,19.97
2023-01-17T22:45:05.351Z,20.40
2023-01-17T22:47:34.990Z,19.57
2023-01-17T22:50:04.749Z,20.87
2023-01-17T22:52:32.806Z,21.57
2023-01-17T22:55:00.321Z,20.83
2023-01-17T22:57:27.952Z,21.07
2023-01-17T22:59:56.024Z,28.93
2023-01-17T23:02:23.290Z,41.90
2023-01-17T23:04:51.387Z,25.57
2023-01-17T23:07:18.659Z,21.83
2023-01-17T23:09:47.473Z,24.20
2023-01-17T23:12:14.662Z,22.43
2023-01-17T23:15:01.126Z,22.90
2023-01-17T23:17:47.315Z,22.90
2023-01-17T23:20:15.230Z,24.70
2023-01-17T23:22:43.023Z,23.27
2023-01-17T23:25:12.919Z,23.80
2023-01-17T23:28:25.543Z,23.33
2023-01-17T23:30:53.429Z,27.33
2023-01-17T23:33:20.979Z,24.83
2023-01-17T23:35:48.921Z,25.03
2023-01-17T23:38:34.680Z,25.17
2023-01-17T23:41:28.108Z,24.37
2023-01-17T23:43:57.732Z,22.70
2023-01-17T23:46:26.620Z,23.33
2023-01-17T23:48:55.226Z,23.37
2023-01-17T23:51:23.504Z,24.27
2023-01-17T23:53:55.260Z,23.60
2023-01-17T23:56:24.830Z,24.40
2023-01-17T23:58:52.371Z,25.73
